X  Schließen METAR Luftfahrt Wetterdaten     EDDL Düsseldorf Airport
Temperatur
27°C Temperatur
12°C Taupunkt
39% Feuchtigkeit



Wind
13 km/h
8 MPS
4 M/S
7 KTS



120°
OSO
Aktuelle Wetterlage

Klar Klar
Luftdruck 1007.79 (hPa) - 29.76 (inHg)
Sichtweite 6 (Meile) - 9.7 (Km)
Flughafen
Flughafen Code EDDL

Position : Düsseldorf Airport
Entfernung: 10 (Km)

Metar:
EDDL 151650Z AUTO 12007KT 020V170 CAVOK 27/12 Q1008 NOSIG

Zeit: 15-07-2024 16:50 CEST